Time;durP1;ratioP1;P1;durP2;ratioP2;P2;SDS_P1;SDS_P2;PMS_P1;PMS_P2;Temp;Humidity;BMP_temperature;BMP_pressure;BME280_temperature;BME280_humidity;BME280_pressure;Samples;Min_cycle;Max_cycle;Signal;HPM_P1;HPM_P2
2023/12/05 00:00:51;;;;;;;7.60;5.47;;;;;;;1.98;94.74;94262.28;4959040;28;20198;-79
2023/12/05 00:03:16;;;;;;;9.87;5.90;;;;;;;1.83;95.85;94271.19;4963417;28;20234;-81
2023/12/05 00:05:41;;;;;;;9.73;5.87;;;;;;;1.83;95.71;94268.66;4959804;28;20215;-79
2023/12/05 00:08:07;;;;;;;8.53;6.23;;;;;;;1.91;95.25;94255.22;4974513;28;20595;-79
2023/12/05 00:10:32;;;;;;;8.17;6.60;;;;;;;2.15;94.27;94260.06;4976028;28;20605;-80
2023/12/05 00:13:00;;;;;;;10.03;5.93;;;;;;;1.98;94.45;94251.22;4973243;28;20216;-80
2023/12/05 00:15:25;;;;;;;9.33;6.57;;;;;;;1.97;95.49;94255.53;4958829;28;20207;-79
2023/12/05 00:17:51;;;;;;;8.07;6.40;;;;;;;1.96;95.62;94263.34;4951737;28;20191;-79
2023/12/05 00:20:16;;;;;;;9.00;6.57;;;;;;;2.15;94.87;94260.88;4968433;28;20279;-79
2023/12/05 00:22:42;;;;;;;10.10;7.03;;;;;;;2.07;94.39;94253.00;4975776;28;20250;-79
2023/12/05 00:25:08;;;;;;;9.60;7.07;;;;;;;1.90;95.42;94262.09;4979890;28;20284;-78
2023/12/05 00:27:34;;;;;;;9.60;7.40;;;;;;;1.90;94.74;94264.66;4957834;28;20247;-79
2023/12/05 00:29:59;;;;;;;10.23;7.30;;;;;;;1.82;96.05;94276.47;4959055;28;20188;-79
2023/12/05 00:32:24;;;;;;;10.97;7.57;;;;;;;1.77;95.93;94276.84;4979809;28;20203;-79
2023/12/05 00:34:50;;;;;;;11.47;7.37;;;;;;;1.86;95.84;94270.16;4958729;28;20207;-79
2023/12/05 00:37:15;;;;;;;11.00;7.70;;;;;;;1.87;95.82;94282.03;4969023;28;20202;-80
2023/12/05 00:39:41;;;;;;;11.83;7.53;;;;;;;1.92;95.32;94267.06;4976920;28;20212;-80
2023/12/05 00:42:06;;;;;;;11.33;7.50;;;;;;;1.86;95.49;94273.53;4971967;28;20219;-79
2023/12/05 00:44:31;;;;;;;10.17;7.43;;;;;;;1.86;95.69;94268.41;4960690;28;20211;-79
2023/12/05 00:46:57;;;;;;;12.17;8.03;;;;;;;1.80;95.75;94273.22;4970929;28;20725;-80
2023/12/05 00:49:22;;;;;;;10.03;7.60;;;;;;;1.96;94.94;94271.03;4975027;28;20195;-80
2023/12/05 00:51:47;;;;;;;10.60;8.10;;;;;;;1.85;95.70;94278.75;4983391;28;20220;-80
2023/12/05 00:54:13;;;;;;;11.03;7.83;;;;;;;1.77;96.26;94284.53;4981991;28;20211;-79
2023/12/05 00:56:38;;;;;;;12.50;8.43;;;;;;;1.80;96.69;94281.69;4976033;28;20275;-80
2023/12/05 00:59:06;;;;;;;11.60;8.27;;;;;;;1.92;95.93;94280.69;4992386;28;20195;-80
2023/12/05 01:01:32;;;;;;;11.43;8.63;;;;;;;1.80;95.76;94286.81;4959518;28;20187;-81
2023/12/05 01:03:57;;;;;;;12.03;8.67;;;;;;;1.86;95.91;94273.53;4979723;28;20570;-79
2023/12/05 01:06:23;;;;;;;12.00;8.47;;;;;;;1.92;95.24;94275.56;4974450;28;20267;-80
2023/12/05 01:08:49;;;;;;;12.87;8.80;;;;;;;1.80;95.99;94278.34;4974792;28;20271;-79
2023/12/05 01:11:15;;;;;;;11.20;7.83;;;;;;;1.87;96.00;94271.78;4974760;28;20271;-79
2023/12/05 01:13:42;;;;;;;11.90;8.83;;;;;;;1.84;95.05;94270.25;4974708;28;20215;-81
2023/12/05 01:16:07;;;;;;;10.77;8.40;;;;;;;1.83;95.61;94281.44;4982674;28;20246;-79
2023/12/05 01:18:33;;;;;;;9.10;7.03;;;;;;;1.72;97.19;94281.50;4971884;28;20861;-80
2023/12/05 01:20:58;;;;;;;9.70;7.27;;;;;;;1.83;96.95;94284.00;4983511;28;20176;-79
2023/12/05 01:23:23;;;;;;;9.87;7.03;;;;;;;1.92;96.84;94277.31;4976282;28;20794;-79
2023/12/05 01:25:49;;;;;;;8.73;6.37;;;;;;;2.02;96.60;94280.75;4965160;28;20548;-80
2023/12/05 01:28:14;;;;;;;6.90;5.13;;;;;;;2.09;97.85;94276.75;4964661;28;20189;-79
2023/12/05 01:30:41;;;;;;;5.37;4.10;;;;;;;2.37;98.55;94285.50;4977882;28;20247;-79
2023/12/05 01:33:06;;;;;;;5.60;3.80;;;;;;;2.60;97.92;94280.19;4971694;28;20654;-79
2023/12/05 01:35:32;;;;;;;3.07;2.63;;;;;;;2.61;99.57;94294.63;4984383;28;20216;-79
2023/12/05 01:37:57;;;;;;;2.97;2.37;;;;;;;2.87;98.53;94292.41;4978119;28;20195;-80
2023/12/05 01:40:22;;;;;;;2.33;1.87;;;;;;;3.05;98.28;94296.75;4978222;28;20182;-79
2023/12/05 01:42:48;;;;;;;2.97;1.63;;;;;;;3.26;97.16;94288.94;4997222;28;20187;-81
2023/12/05 01:45:13;;;;;;;2.77;1.90;;;;;;;3.29;95.80;94293.00;4971022;28;20203;-81
2023/12/05 01:47:39;;;;;;;2.13;1.83;;;;;;;3.31;95.74;94283.41;4977925;28;20204;-80
2023/12/05 01:50:09;;;;;;;1.90;1.70;;;;;;;3.35;95.35;94290.69;4969828;28;20184;-80
2023/12/05 01:52:35;;;;;;;2.37;1.70;;;;;;;3.33;95.56;94277.19;4958579;28;20220;-80
2023/12/05 01:55:00;;;;;;;2.23;1.40;;;;;;;3.40;95.34;94285.19;4984976;28;20229;-79
2023/12/05 01:57:26;;;;;;;1.30;1.20;;;;;;;3.29;96.48;94285.31;4976373;28;20190;-79
2023/12/05 01:59:51;;;;;;;1.73;1.50;;;;;;;3.27;95.91;94288.03;4985974;28;20195;-80
2023/12/05 02:02:17;;;;;;;2.60;1.77;;;;;;;3.41;95.23;94281.66;4962454;28;20187;-80
2023/12/05 02:04:42;;;;;;;1.63;1.50;;;;;;;3.37;95.57;94275.19;4952029;28;20234;-80
2023/12/05 02:07:08;;;;;;;2.00;1.80;;;;;;;3.35;94.70;94272.72;4967307;28;20563;-80
2023/12/05 02:09:35;;;;;;;2.07;1.50;;;;;;;3.29;95.09;94264.78;4977248;28;20673;-81
2023/12/05 02:12:00;;;;;;;2.40;1.50;;;;;;;3.26;95.57;94268.41;4981512;28;20687;-80
2023/12/05 02:14:26;;;;;;;2.60;1.50;;;;;;;3.32;95.12;94267.88;4976159;28;20245;-80
2023/12/05 02:16:57;;;;;;;2.60;1.47;;;;;;;3.37;94.50;94265.72;4994012;28;20649;-80
2023/12/05 02:19:58;;;;;;;2.43;1.57;;;;;;;3.33;94.81;94271.25;4993900;28;20294;-80
2023/12/05 02:22:38;;;;;;;1.40;1.30;;;;;;;3.24;95.54;94270.31;4909931;28;20259;-80
2023/12/05 02:25:21;;;;;;;1.30;1.20;;;;;;;3.29;95.64;94269.91;4975936;28;20695;-80
2023/12/05 02:27:47;;;;;;;1.90;1.20;;;;;;;3.28;94.98;94283.69;4977403;28;20196;-81
2023/12/05 02:30:15;;;;;;;1.73;1.50;;;;;;;3.23;95.88;94296.09;4964839;28;20192;-81
2023/12/05 02:32:40;;;;;;;1.10;1.00;;;;;;;3.26;95.21;94293.25;4972967;28;20689;-80
2023/12/05 02:35:06;;;;;;;3.20;1.50;;;;;;;3.16;94.64;94295.81;4975818;28;20192;-80
2023/12/05 02:37:43;;;;;;;2.33;1.20;;;;;;;3.10;96.15;94286.91;4975461;28;20192;-80
2023/12/05 02:40:16;;;;;;;1.33;1.17;;;;;;;3.17;95.17;94292.31;4981377;28;20190;-80
2023/12/05 02:42:43;;;;;;;1.73;1.60;;;;;;;3.29;94.09;94298.16;4974171;28;20688;-81
2023/12/05 02:45:16;;;;;;;1.77;1.37;;;;;;;3.20;94.63;94301.50;4960273;28;20191;-81
2023/12/05 02:47:42;;;;;;;1.80;1.63;;;;;;;3.15;94.73;94304.47;4976487;28;20602;-81
2023/12/05 02:50:07;;;;;;;2.60;1.53;;;;;;;3.17;95.40;94312.03;4976381;28;20237;-81
2023/12/05 02:52:33;;;;;;;1.80;1.50;;;;;;;3.18;94.76;94317.03;4990189;28;20456;-81
2023/12/05 02:54:58;;;;;;;1.70;1.57;;;;;;;3.14;94.73;94315.66;4974021;28;20700;-81
2023/12/05 02:57:23;;;;;;;1.83;1.40;;;;;;;3.23;95.28;94321.75;4985455;28;20192;-81
2023/12/05 02:59:49;;;;;;;1.63;1.30;;;;;;;3.25;94.95;94323.25;4960377;28;20259;-81
2023/12/05 03:02:14;;;;;;;1.73;1.27;;;;;;;3.28;94.86;94317.84;4973954;28;20184;-81
2023/12/05 03:04:39;;;;;;;1.30;1.20;;;;;;;3.28;94.80;94329.88;4993184;28;20222;-81
2023/12/05 03:07:04;;;;;;;2.70;1.67;;;;;;;3.17;94.70;94327.41;4975483;28;20191;-81
2023/12/05 03:09:33;;;;;;;3.60;1.40;;;;;;;3.29;94.50;94336.63;4960182;28;20758;-82
2023/12/05 03:11:58;;;;;;;2.27;1.80;;;;;;;3.18;94.18;94334.16;4956711;28;20188;-80
2023/12/05 03:14:24;;;;;;;2.30;2.10;;;;;;;3.13;93.82;94327.69;4975992;28;20216;-81
2023/12/05 03:16:49;;;;;;;3.53;3.07;;;;;;;2.97;95.32;94327.38;4988173;28;20187;-81
2023/12/05 03:19:14;;;;;;;5.33;4.03;;;;;;;2.85;95.82;94333.56;4976096;28;20187;-80
2023/12/05 03:21:39;;;;;;;5.93;4.43;;;;;;;2.72;95.84;94332.97;4976725;28;20198;-80
2023/12/05 03:24:05;;;;;;;6.13;4.70;;;;;;;2.73;96.21;94334.59;4969430;28;20622;-80
2023/12/05 03:26:30;;;;;;;6.40;4.97;;;;;;;2.83;94.99;94350.84;4958346;28;20750;-81
2023/12/05 03:28:56;;;;;;;6.23;5.10;;;;;;;2.58;96.56;94341.81;4976055;28;20270;-80
2023/12/05 03:31:24;;;;;;;7.53;5.23;;;;;;;2.72;95.82;94333.78;4975959;28;20207;-81
2023/12/05 03:33:49;;;;;;;6.37;5.50;;;;;;;2.64;94.86;94333.59;4975040;28;20215;-80
2023/12/05 03:36:15;;;;;;;8.40;5.90;;;;;;;2.53;96.04;94326.81;4978725;28;20267;-81
2023/12/05 03:38:40;;;;;;;8.57;5.47;;;;;;;2.39;97.24;94322.06;4977791;28;20288;-80
2023/12/05 03:41:07;;;;;;;9.27;6.00;;;;;;;2.48;97.09;94323.84;4993316;28;20179;-80
2023/12/05 03:43:32;;;;;;;7.40;5.57;;;;;;;2.40;96.73;94328.81;4975451;28;20724;-80
2023/12/05 03:45:58;;;;;;;8.60;5.93;;;;;;;2.43;97.10;94328.53;4959431;28;20184;-83
2023/12/05 03:48:23;;;;;;;8.40;5.80;;;;;;;2.44;96.35;94325.03;4961484;28;20199;-81
2023/12/05 03:50:48;;;;;;;8.33;7.00;;;;;;;2.49;97.11;94332.34;4968536;28;20729;-81
2023/12/05 03:53:14;;;;;;;11.57;6.50;;;;;;;2.44;96.76;94337.84;4975099;28;20559;-81
2023/12/05 03:55:39;;;;;;;8.40;6.33;;;;;;;2.47;97.32;94341.91;4975530;28;20180;-82
2023/12/05 03:58:04;;;;;;;9.67;6.37;;;;;;;2.64;96.60;94341.28;4958890;28;20234;-82
2023/12/05 04:00:30;;;;;;;9.50;7.10;;;;;;;2.38;97.38;94346.03;4975193;28;20191;-82
2023/12/05 04:02:56;;;;;;;8.87;6.47;;;;;;;2.45;97.99;94354.84;4959792;28;20188;-83
2023/12/05 04:05:21;;;;;;;7.97;6.43;;;;;;;2.60;97.36;94355.31;4974284;28;20255;-81
2023/12/05 04:07:46;;;;;;;11.07;6.53;;;;;;;2.60;97.30;94354.50;4958200;28;20187;-82
2023/12/05 04:10:12;;;;;;;8.83;6.50;;;;;;;2.51;98.18;94356.09;4983615;28;20666;-81
2023/12/05 04:12:39;;;;;;;9.67;6.90;;;;;;;2.70;97.26;94355.34;4974783;28;20200;-82
2023/12/05 04:15:05;;;;;;;10.07;6.43;;;;;;;2.65;97.00;94344.66;4959033;28;20191;-82
2023/12/05 04:17:30;;;;;;;8.93;6.80;;;;;;;2.66;97.45;94348.88;4974590;28;20199;-82
2023/12/05 04:19:56;;;;;;;10.03;6.80;;;;;;;2.61;96.86;94351.00;4975079;28;20214;-83
2023/12/05 04:22:21;;;;;;;10.10;6.57;;;;;;;2.53;97.18;94354.19;4976725;28;20310;-82
2023/12/05 04:24:46;;;;;;;10.43;6.97;;;;;;;2.55;97.55;94352.31;4958389;28;20294;-82
2023/12/05 04:27:12;;;;;;;10.60;6.67;;;;;;;2.54;97.73;94356.63;4963439;28;20212;-82
2023/12/05 04:29:37;;;;;;;11.23;7.13;;;;;;;2.72;96.36;94348.34;4977353;28;20187;-82
2023/12/05 04:32:02;;;;;;;10.20;7.50;;;;;;;2.64;96.32;94348.19;4969920;28;20593;-82
2023/12/05 04:34:28;;;;;;;10.67;7.43;;;;;;;2.40;97.47;94351.06;4990316;28;20207;-82
2023/12/05 04:36:53;;;;;;;12.23;7.80;;;;;;;2.29;98.41;94346.78;4956153;28;20191;-82
2023/12/05 04:39:19;;;;;;;10.57;7.50;;;;;;;2.38;98.59;94346.03;4974804;28;20188;-83
2023/12/05 04:41:44;;;;;;;12.67;7.90;;;;;;;2.41;98.53;94345.78;4974529;28;20194;-82
2023/12/05 04:44:09;;;;;;;13.07;8.40;;;;;;;2.43;97.54;94355.91;4974613;28;20243;-82
2023/12/05 04:46:38;;;;;;;13.20;7.67;;;;;;;2.51;98.01;94349.22;4974535;28;20211;-82
2023/12/05 04:49:05;;;;;;;10.33;7.37;;;;;;;2.42;98.26;94344.84;4969628;28;20566;-82
2023/12/05 04:51:30;;;;;;;12.97;8.13;;;;;;;2.39;98.06;94354.56;4964647;28;20246;-82
2023/12/05 04:53:55;;;;;;;10.47;6.97;;;;;;;2.32;99.35;94354.25;4955154;28;20229;-82
2023/12/05 04:56:21;;;;;;;10.77;7.47;;;;;;;2.55;97.96;94357.44;4976031;28;20732;-81
2023/12/05 04:58:46;;;;;;;9.73;6.63;;;;;;;2.47;98.01;94347.84;4962700;28;20192;-81
2023/12/05 05:01:11;;;;;;;10.40;7.13;;;;;;;2.48;98.18;94346.09;4968512;28;20210;-81
2023/12/05 05:03:37;;;;;;;12.20;7.23;;;;;;;2.36;98.96;94341.97;4960848;28;20215;-81
2023/12/05 05:06:02;;;;;;;9.97;6.50;;;;;;;2.53;97.88;94346.50;4996011;28;20263;-82
2023/12/05 05:08:28;;;;;;;10.20;6.77;;;;;;;2.40;98.48;94341.63;4978344;28;20661;-82
2023/12/05 05:10:53;;;;;;;11.43;7.83;;;;;;;2.50;97.47;94346.78;4996309;28;20556;-81
2023/12/05 05:13:18;;;;;;;9.93;6.27;;;;;;;2.43;97.97;94348.22;4970047;28;20601;-82
2023/12/05 05:15:44;;;;;;;13.33;6.87;;;;;;;2.49;99.00;94348.53;4978426;28;20201;-82
2023/12/05 05:18:09;;;;;;;11.00;5.50;;;;;;;2.45;99.44;94352.28;4978030;28;20208;-83
2023/12/05 05:20:34;;;;;;;9.70;5.80;;;;;;;2.51;98.06;94354.34;4971998;28;20188;-83
2023/12/05 05:23:00;;;;;;;8.20;5.33;;;;;;;2.46;98.86;94353.09;4979487;28;20204;-82
2023/12/05 05:25:25;;;;;;;8.53;4.90;;;;;;;2.66;97.27;94359.94;4984252;28;20279;-82
2023/12/05 05:27:51;;;;;;;6.40;4.90;;;;;;;2.67;97.25;94358.19;4967437;28;20195;-82
2023/12/05 05:30:16;;;;;;;8.30;5.50;;;;;;;2.68;97.23;94358.06;4989196;28;20223;-82
2023/12/05 05:32:41;;;;;;;11.10;6.43;;;;;;;2.55;97.69;94352.31;4977783;28;20282;-81
2023/12/05 05:35:07;;;;;;;8.33;5.87;;;;;;;2.58;97.38;94352.09;4962964;28;20564;-81
2023/12/05 05:37:32;;;;;;;8.67;5.60;;;;;;;2.63;97.05;94354.25;4971658;28;20683;-82
2023/12/05 05:39:58;;;;;;;8.80;5.30;;;;;;;2.67;97.17;94359.00;4961761;28;20187;-82
2023/12/05 05:42:23;;;;;;;9.67;5.47;;;;;;;2.67;97.24;94355.63;4982610;28;20214;-81
2023/12/05 05:44:48;;;;;;;8.17;5.47;;;;;;;2.57;96.82;94360.72;4995052;28;20208;-82
2023/12/05 05:47:14;;;;;;;12.27;6.33;;;;;;;2.60;97.48;94359.63;4963267;28;20231;-82
2023/12/05 05:49:39;;;;;;;8.20;5.93;;;;;;;2.54;96.74;94356.63;4977770;28;20646;-81
2023/12/05 05:52:05;;;;;;;11.53;6.70;;;;;;;2.50;96.31;94362.16;4966230;28;20188;-81
2023/12/05 05:54:30;;;;;;;10.43;7.30;;;;;;;2.39;97.75;94368.19;4977395;28;20214;-82
2023/12/05 05:56:55;;;;;;;10.27;6.77;;;;;;;2.40;97.24;94363.88;4977719;28;20180;-82
2023/12/05 05:59:21;;;;;;;10.63;6.73;;;;;;;2.27;98.49;94366.59;4977636;28;20188;-81
2023/12/05 06:01:47;;;;;;;11.30;7.20;;;;;;;2.32;97.44;94369.63;4970350;28;20193;-81
2023/12/05 06:04:12;;;;;;;11.70;6.53;;;;;;;2.26;97.98;94365.78;4987270;28;20215;-81
2023/12/05 06:06:38;;;;;;;14.27;6.70;;;;;;;2.24;98.44;94369.44;4961710;28;20245;-81
2023/12/05 06:09:04;;;;;;;10.00;6.63;;;;;;;2.16;98.25;94362.38;4978205;28;20192;-82
2023/12/05 06:11:29;;;;;;;9.73;6.63;;;;;;;2.15;99.25;94359.94;4976599;28;20192;-81
2023/12/05 06:13:55;;;;;;;10.10;6.70;;;;;;;2.30;98.32;94362.97;4961440;28;20598;-81
2023/12/05 06:16:23;;;;;;;10.10;6.63;;;;;;;2.21;99.26;94356.88;4959860;28;20348;-82
2023/12/05 06:18:48;;;;;;;9.93;6.27;;;;;;;2.25;99.98;94351.38;4978155;28;20187;-81
2023/12/05 06:21:14;;;;;;;10.13;5.90;;;;;;;2.30;99.85;94358.69;4979109;28;20570;-82
2023/12/05 06:23:39;;;;;;;9.13;5.60;;;;;;;2.28;99.14;94352.84;4979225;28;20207;-82
2023/12/05 06:26:05;;;;;;;7.60;4.97;;;;;;;2.24;99.93;94365.13;4967469;28;20226;-81
2023/12/05 06:28:30;;;;;;;8.60;4.63;;;;;;;2.40;99.26;94374.91;4966054;28;20199;-82
2023/12/05 06:30:56;;;;;;;7.37;5.13;;;;;;;2.40;99.15;94376.69;4968279;28;20196;-82
2023/12/05 06:33:21;;;;;;;8.93;5.03;;;;;;;2.45;98.47;94375.34;4976266;28;20223;-83
2023/12/05 06:35:47;;;;;;;6.30;5.30;;;;;;;2.34;98.23;94377.97;4977658;28;20234;-82
2023/12/05 06:38:14;;;;;;;13.17;6.03;;;;;;;2.43;98.42;94382.34;4972219;28;20194;-81
2023/12/05 06:40:39;;;;;;;11.30;6.50;;;;;;;2.35;97.71;94384.72;4977976;28;20270;-81
2023/12/05 06:43:04;;;;;;;9.83;6.73;;;;;;;2.26;97.93;94378.59;4976701;28;20736;-82
2023/12/05 06:45:30;;;;;;;7.60;5.50;;;;;;;2.28;98.63;94383.59;4966359;28;20192;-81
2023/12/05 06:47:56;;;;;;;8.07;5.50;;;;;;;2.21;99.45;94395.31;4968533;28;20218;-82
2023/12/05 06:50:25;;;;;;;10.47;5.23;;;;;;;2.32;100.00;94397.78;4973805;28;20235;-82
2023/12/05 06:52:51;;;;;;;7.20;4.50;;;;;;;2.40;99.79;94397.16;4977113;28;20216;-81
2023/12/05 06:55:17;;;;;;;7.73;4.73;;;;;;;2.51;98.67;94402.22;4994058;28;20191;-82
2023/12/05 06:57:42;;;;;;;10.13;4.47;;;;;;;2.42;99.24;94401.22;4977965;28;20196;-82
2023/12/05 07:00:08;;;;;;;7.43;5.00;;;;;;;2.44;98.61;94398.53;4983842;28;20199;-82
2023/12/05 07:02:34;;;;;;;6.90;4.90;;;;;;;2.52;97.87;94399.53;4993641;28;20215;-82
2023/12/05 07:05:02;;;;;;;7.97;4.87;;;;;;;2.43;97.98;94407.97;4975101;28;20707;-82
2023/12/05 07:07:27;;;;;;;8.70;4.27;;;;;;;2.60;97.27;94413.47;4976328;28;20203;-82
2023/12/05 07:09:53;;;;;;;8.07;4.73;;;;;;;2.57;97.86;94411.97;4977168;28;20179;-82
2023/12/05 07:12:19;;;;;;;9.53;4.70;;;;;;;2.50;98.00;94421.09;4976477;28;20198;-81
2023/12/05 07:14:44;;;;;;;8.67;4.57;;;;;;;2.52;98.90;94424.34;4977790;28;20291;-82
2023/12/05 07:17:09;;;;;;;7.13;4.00;;;;;;;2.79;97.19;94432.31;4975940;28;20650;-82
2023/12/05 07:19:35;;;;;;;5.30;4.17;;;;;;;2.69;98.14;94430.63;4977214;28;20195;-83
2023/12/05 07:22:00;;;;;;;6.87;4.27;;;;;;;2.92;96.44;94426.97;4957077;28;20196;-82
2023/12/05 07:24:25;;;;;;;6.37;4.13;;;;;;;2.74;97.10;94444.72;4966153;28;20215;-82
2023/12/05 07:26:51;;;;;;;7.20;3.97;;;;;;;2.90;96.45;94433.16;4988073;28;20183;-82
2023/12/05 07:29:16;;;;;;;6.17;4.50;;;;;;;3.12;95.73;94438.94;4963667;28;20340;-80
2023/12/05 07:31:42;;;;;;;7.17;4.17;;;;;;;3.08;94.93;94441.88;4963408;28;20218;-82
2023/12/05 07:34:07;;;;;;;8.53;4.37;;;;;;;3.14;95.39;94438.81;4988269;28;20220;-82
2023/12/05 07:36:33;;;;;;;6.60;4.27;;;;;;;3.11;94.90;94442.44;4958261;28;20195;-81
2023/12/05 07:38:59;;;;;;;8.27;4.03;;;;;;;3.19;93.76;94446.94;4973775;28;20183;-81
2023/12/05 07:41:24;;;;;;;6.10;3.97;;;;;;;3.21;94.69;94442.47;4967969;28;20198;-81
2023/12/05 07:43:50;;;;;;;4.97;4.23;;;;;;;3.39;94.00;94451.19;4973832;28;20203;-80
2023/12/05 07:46:16;;;;;;;5.33;3.83;;;;;;;3.57;93.20;94453.91;4962248;28;20571;-82
2023/12/05 07:48:41;;;;;;;6.77;4.17;;;;;;;3.40;93.80;94457.13;4956663;28;20184;-82
2023/12/05 07:51:07;;;;;;;6.70;4.00;;;;;;;3.45;92.45;94452.41;4972169;28;20190;-81
2023/12/05 07:53:32;;;;;;;5.70;3.57;;;;;;;3.45;93.68;94452.41;4972597;28;20211;-81
2023/12/05 07:55:58;;;;;;;6.20;4.07;;;;;;;3.55;92.96;94460.13;4983921;28;20188;-81
2023/12/05 07:58:24;;;;;;;6.47;3.67;;;;;;;3.60;92.54;94458.78;4972784;28;20882;-81
2023/12/05 08:00:50;;;;;;;5.17;3.50;;;;;;;3.56;92.53;94457.44;4971072;28;20307;-81
2023/12/05 08:03:15;;;;;;;7.47;3.13;;;;;;;3.54;93.50;94449.06;4967152;28;20306;-82
2023/12/05 08:05:40;;;;;;;4.90;3.20;;;;;;;3.37;93.74;94452.25;4956220;28;20194;-81
2023/12/05 08:08:06;;;;;;;4.13;2.87;;;;;;;3.42;93.72;94457.78;4975390;28;20188;-82
2023/12/05 08:10:31;;;;;;;6.50;2.40;;;;;;;3.59;93.08;94456.34;4971633;28;20195;-82
2023/12/05 08:12:56;;;;;;;4.47;2.93;;;;;;;3.85;91.92;94461.81;4974361;28;20195;-82
2023/12/05 08:15:22;;;;;;;7.50;2.90;;;;;;;3.54;92.50;94467.03;4970167;28;20775;-81
2023/12/05 08:17:47;;;;;;;4.07;2.10;;;;;;;3.90;92.31;94472.50;4962539;28;20215;-82
2023/12/05 08:20:13;;;;;;;3.53;2.30;;;;;;;3.83;92.17;94464.50;4967102;28;20184;-82
2023/12/05 08:22:38;;;;;;;4.10;2.10;;;;;;;3.85;91.70;94466.94;4989980;28;20181;-82
2023/12/05 08:25:07;;;;;;;3.73;1.83;;;;;;;4.04;91.20;94477.22;4959181;28;20588;-83
2023/12/05 08:27:33;;;;;;;6.87;2.20;;;;;;;3.80;91.17;94464.78;4969775;28;20184;-82
2023/12/05 08:29:59;;;;;;;5.53;2.30;;;;;;;4.02;90.00;94471.44;4967732;28;20231;-83
2023/12/05 08:32:24;;;;;;;3.63;2.07;;;;;;;3.95;90.47;94478.03;4967001;28;20233;-83
2023/12/05 08:34:50;;;;;;;6.20;1.60;;;;;;;4.23;88.66;94479.81;4989719;28;20823;-83
2023/12/05 08:37:15;;;;;;;5.47;2.87;;;;;;;4.11;89.43;94482.66;4983107;28;20184;-82
2023/12/05 08:39:41;;;;;;;5.13;2.00;;;;;;;4.47;88.05;94484.53;4959168;28;20267;-81
2023/12/05 08:42:06;;;;;;;2.77;1.80;;;;;;;4.19;88.63;94491.31;4983925;28;20254;-83
2023/12/05 08:44:31;;;;;;;5.33;1.60;;;;;;;4.19;89.12;94493.88;4987746;28;20206;-83
2023/12/05 08:46:57;;;;;;;1.93;1.37;;;;;;;4.46;88.24;94495.78;4994796;28;20181;-82
2023/12/05 08:49:22;;;;;;;2.70;1.60;;;;;;;4.26;88.03;94497.53;4971210;28;20184;-82
2023/12/05 08:51:48;;;;;;;2.80;1.77;;;;;;;4.32;88.23;94495.38;4971480;28;20189;-82
2023/12/05 08:54:13;;;;;;;3.17;1.37;;;;;;;4.22;88.08;94498.75;4980255;28;20436;-84
2023/12/05 08:56:38;;;;;;;5.93;1.37;;;;;;;4.28;88.46;94499.16;4957694;28;20326;-83
2023/12/05 08:59:04;;;;;;;4.10;1.50;;;;;;;4.45;87.65;94491.59;4976041;28;20250;-82
2023/12/05 09:01:29;;;;;;;4.37;2.20;;;;;;;4.21;88.24;94484.28;4955869;28;20258;-83
2023/12/05 09:03:54;;;;;;;3.40;1.60;;;;;;;4.19;88.12;94480.22;4959680;28;20218;-82
2023/12/05 09:06:20;;;;;;;2.87;1.20;;;;;;;4.05;88.43;94491.69;4961100;28;20199;-82
2023/12/05 09:08:45;;;;;;;1.20;1.07;;;;;;;4.15;87.45;94484.84;4986841;28;20191;-82
2023/12/05 09:11:12;;;;;;;2.57;1.10;;;;;;;4.14;87.70;94484.94;4963495;28;20732;-82
2023/12/05 09:13:37;;;;;;;2.47;1.30;;;;;;;4.24;87.38;94486.59;4979114;28;20230;-83
2023/12/05 09:16:03;;;;;;;2.20;1.20;;;;;;;4.21;87.13;94481.72;4984083;28;20192;-83
2023/12/05 09:18:28;;;;;;;2.40;1.37;;;;;;;4.26;86.96;94483.88;4979309;28;20271;-83
2023/12/05 09:20:54;;;;;;;1.70;0.90;;;;;;;4.23;87.16;94484.94;4978955;28;20198;-82
2023/12/05 09:23:19;;;;;;;4.53;1.43;;;;;;;4.40;86.01;94492.94;4977228;28;20211;-82
2023/12/05 09:25:45;;;;;;;3.13;1.17;;;;;;;4.50;85.05;94494.53;4980101;28;20702;-82
2023/12/05 09:28:10;;;;;;;3.30;1.10;;;;;;;4.46;84.86;94492.41;4975746;28;20264;-82
2023/12/05 09:30:36;;;;;;;4.23;1.10;;;;;;;4.53;84.90;94501.19;4993499;28;20190;-82
2023/12/05 09:33:02;;;;;;;1.73;0.97;;;;;;;4.53;84.30;94498.63;4977855;28;20271;-81
2023/12/05 09:35:27;;;;;;;1.33;1.20;;;;;;;4.77;83.90;94496.44;4978998;28;20199;-82
2023/12/05 09:37:53;;;;;;;4.03;1.17;;;;;;;4.91;83.22;94502.09;4977873;28;20541;-82
2023/12/05 09:40:19;;;;;;;3.03;1.10;;;;;;;4.81;83.07;94497.78;4995998;28;20274;-81
2023/12/05 09:42:47;;;;;;;1.10;0.80;;;;;;;4.85;83.94;94503.44;4963298;28;20652;-79
2023/12/05 09:45:14;;;;;;;1.60;1.10;;;;;;;5.19;82.63;94506.34;4979001;28;20219;-80
2023/12/05 09:47:42;;;;;;;2.33;0.97;;;;;;;5.25;82.00;94503.22;4976131;28;20188;-79
2023/12/05 09:50:09;;;;;;;7.37;1.13;;;;;;;4.92;83.08;94496.78;4976139;28;20195;-79
2023/12/05 09:52:34;;;;;;;2.10;1.40;;;;;;;5.11;82.69;94501.09;4979567;28;20207;-81
2023/12/05 09:55:00;;;;;;;3.93;1.20;;;;;;;5.09;83.53;94500.41;4964284;28;20265;-80
2023/12/05 09:57:25;;;;;;;4.93;1.73;;;;;;;5.14;83.01;94502.59;4980600;28;20653;-81
2023/12/05 09:59:50;;;;;;;2.60;1.17;;;;;;;4.85;84.72;94506.00;4980700;28;20192;-80
2023/12/05 10:02:19;;;;;;;2.20;1.07;;;;;;;4.94;84.64;94504.38;4995144;28;20207;-80
2023/12/05 10:04:45;;;;;;;1.50;1.00;;;;;;;4.94;84.45;94491.50;4982206;28;20247;-80
2023/12/05 10:07:13;;;;;;;3.90;1.50;;;;;;;4.87;85.35;94491.28;4976566;28;20192;-81
2023/12/05 10:09:43;;;;;;;1.63;1.03;;;;;;;4.75;85.31;94493.16;4969529;28;20692;-79
2023/12/05 10:12:09;;;;;;;1.77;1.23;;;;;;;5.02;85.28;94496.78;4979254;28;20676;-82
2023/12/05 10:14:36;;;;;;;1.77;1.07;;;;;;;4.87;84.72;94503.31;5000632;28;20226;-81
2023/12/05 10:17:02;;;;;;;2.23;1.40;;;;;;;5.09;83.72;94500.41;4971021;28;20872;-82
2023/12/05 10:19:29;;;;;;;2.17;1.07;;;;;;;4.95;84.36;94498.31;4989912;28;20224;-81
2023/12/05 10:21:55;;;;;;;2.57;1.10;;;;;;;5.04;83.71;94493.13;4982587;28;20672;-81
2023/12/05 10:24:21;;;;;;;2.20;0.80;;;;;;;5.10;83.62;94495.13;4978015;28;20301;-82
2023/12/05 10:26:47;;;;;;;1.43;1.07;;;;;;;5.22;82.74;94492.41;4981564;28;20211;-82
2023/12/05 10:29:14;;;;;;;2.50;1.00;;;;;;;5.21;82.69;94491.59;4982402;28;20184;-81
2023/12/05 10:31:40;;;;;;;4.03;0.97;;;;;;;5.24;82.95;94487.91;4980512;28;20279;-82
2023/12/05 10:34:06;;;;;;;1.07;0.80;;;;;;;5.43;82.01;94497.31;4981602;28;20616;-82
2023/12/05 10:36:31;;;;;;;1.87;1.20;;;;;;;5.13;82.19;94496.63;4980551;28;20226;-82
2023/12/05 10:38:57;;;;;;;1.27;0.90;;;;;;;5.38;81.88;94490.81;4999245;28;20196;-82
2023/12/05 10:41:23;;;;;;;1.10;0.90;;;;;;;5.34;81.69;94489.50;4998048;28;20686;-82
2023/12/05 10:43:49;;;;;;;1.83;1.07;;;;;;;5.46;81.06;94497.03;4975559;28;20258;-82
2023/12/05 10:46:15;;;;;;;2.73;0.80;;;;;;;5.31;81.88;94484.66;4983745;28;20195;-83
2023/12/05 10:48:40;;;;;;;3.33;1.20;;;;;;;4.93;81.66;94484.75;4967686;28;20187;-83
2023/12/05 10:51:06;;;;;;;1.27;0.80;;;;;;;5.11;82.30;94480.50;4980599;28;20195;-84
2023/12/05 10:53:37;;;;;;;2.73;1.20;;;;;;;5.19;81.85;94475.47;4977217;28;20211;-83
2023/12/05 10:56:13;;;;;;;1.27;0.80;;;;;;;5.47;81.26;94478.06;4967763;28;20188;-82
2023/12/05 10:58:43;;;;;;;0.83;0.80;;;;;;;5.35;80.75;94475.66;4977208;28;20190;-79
2023/12/05 11:01:12;;;;;;;1.03;0.90;;;;;;;5.60;80.14;94481.13;4980949;28;20246;-80
2023/12/05 11:03:39;;;;;;;2.00;1.07;;;;;;;5.76;78.98;94477.94;4975708;28;20211;-80
2023/12/05 11:06:07;;;;;;;2.37;1.40;;;;;;;5.54;80.05;94472.19;4982860;28;20202;-81
2023/12/05 11:08:36;;;;;;;2.30;0.90;;;;;;;5.54;79.64;94473.97;4976862;28;20188;-79
2023/12/05 11:11:03;;;;;;;3.77;1.00;;;;;;;5.38;80.67;94472.81;4985545;28;20259;-79
2023/12/05 11:13:31;;;;;;;1.80;0.93;;;;;;;5.57;80.04;94479.66;4994415;28;20233;-79
2023/12/05 11:16:00;;;;;;;1.63;0.90;;;;;;;5.83;79.45;94474.63;4957833;28;20184;-80
2023/12/05 11:18:34;;;;;;;1.93;0.60;;;;;;;5.59;79.61;94482.09;4975151;28;20192;-79
2023/12/05 11:21:11;;;;;;;0.70;0.70;;;;;;;5.80;79.00;94474.91;4992055;28;20652;-80
2023/12/05 11:23:50;;;;;;;2.00;0.90;;;;;;;6.02;78.61;94484.03;4975882;28;20207;-79
2023/12/05 11:26:52;;;;;;;1.80;0.90;;;;;;;5.83;78.56;94484.94;4956319;28;20669;-79
2023/12/05 11:29:33;;;;;;;0.90;0.80;;;;;;;5.93;78.37;94479.75;4940227;28;20222;-79
2023/12/05 11:32:12;;;;;;;1.60;1.00;;;;;;;6.13;77.85;94475.28;4992337;28;20184;-79
2023/12/05 11:34:59;;;;;;;1.67;1.43;;;;;;;6.38;76.50;94481.47;4980486;28;20225;-79